sensor_id;sensor_type;location;lat;lon;timestamp;pressure;altitude;pressure_sealevel;temperature;humidity
75629;BME280;64213;46.452;16.994;2023-11-21T00:00:51;99404.88;;;5.00;100.00
75629;BME280;64213;46.452;16.994;2023-11-21T00:04:12;99401.16;;;5.04;100.00
75629;BME280;64213;46.452;16.994;2023-11-21T00:07:31;99408.00;;;5.06;100.00
75629;BME280;64213;46.452;16.994;2023-11-21T00:10:56;99405.19;;;5.11;100.00
75629;BME280;64213;46.452;16.994;2023-11-21T00:14:16;99407.63;;;5.14;100.00
75629;BME280;64213;46.452;16.994;2023-11-21T00:17:39;99405.59;;;5.19;100.00
75629;BME280;64213;46.452;16.994;2023-11-21T00:21:01;99397.59;;;5.22;100.00
75629;BME280;64213;46.452;16.994;2023-11-21T00:24:24;99398.19;;;5.27;100.00
75629;BME280;64213;46.452;16.994;2023-11-21T00:27:50;99398.25;;;5.26;100.00
75629;BME280;64213;46.452;16.994;2023-11-21T00:31:12;99402.59;;;5.27;100.00
75629;BME280;64213;46.452;16.994;2023-11-21T00:34:32;99408.16;;;5.21;100.00
75629;BME280;64213;46.452;16.994;2023-11-21T00:37:53;99413.47;;;5.19;100.00
75629;BME280;64213;46.452;16.994;2023-11-21T00:41:17;99415.50;;;5.14;100.00
75629;BME280;64213;46.452;16.994;2023-11-21T00:44:44;99425.47;;;5.07;100.00
75629;BME280;64213;46.452;16.994;2023-11-21T00:48:05;99416.97;;;5.02;100.00
75629;BME280;64213;46.452;16.994;2023-11-21T00:51:27;99408.47;;;4.97;100.00
75629;BME280;64213;46.452;16.994;2023-11-21T00:54:51;99413.72;;;4.97;100.00
75629;BME280;64213;46.452;16.994;2023-11-21T00:58:13;99410.19;;;4.98;100.00
75629;BME280;64213;46.452;16.994;2023-11-21T01:01:35;99397.69;;;5.03;100.00
75629;BME280;64213;46.452;16.994;2023-11-21T01:04:54;99385.03;;;5.11;100.00
75629;BME280;64213;46.452;16.994;2023-11-21T01:08:15;99382.38;;;5.29;100.00
75629;BME280;64213;46.452;16.994;2023-11-21T01:11:29;99384.28;;;5.43;100.00
75629;BME280;64213;46.452;16.994;2023-11-21T01:14:32;99387.31;;;5.51;100.00
75629;BME280;64213;46.452;16.994;2023-11-21T01:17:35;99382.53;;;5.59;100.00
75629;BME280;64213;46.452;16.994;2023-11-21T01:20:38;99377.94;;;5.63;100.00
75629;BME280;64213;46.452;16.994;2023-11-21T01:23:40;99366.78;;;5.59;100.00
75629;BME280;64213;46.452;16.994;2023-11-21T01:26:43;99356.62;;;5.53;100.00
75629;BME280;64213;46.452;16.994;2023-11-21T01:29:47;99362.78;;;5.52;100.00
75629;BME280;64213;46.452;16.994;2023-11-21T01:32:50;99359.41;;;5.50;100.00
75629;BME280;64213;46.452;16.994;2023-11-21T01:35:52;99350.38;;;5.55;100.00
75629;BME280;64213;46.452;16.994;2023-11-21T01:38:58;99348.25;;;5.62;100.00
75629;BME280;64213;46.452;16.994;2023-11-21T01:42:01;99344.53;;;5.66;100.00
75629;BME280;64213;46.452;16.994;2023-11-21T01:45:04;99338.09;;;5.72;100.00
75629;BME280;64213;46.452;16.994;2023-11-21T01:48:08;99334.25;;;5.77;100.00
75629;BME280;64213;46.452;16.994;2023-11-21T01:51:11;99327.00;;;5.82;100.00
75629;BME280;64213;46.452;16.994;2023-11-21T01:54:13;99326.75;;;5.87;100.00
75629;BME280;64213;46.452;16.994;2023-11-21T01:57:19;99323.84;;;5.92;100.00
75629;BME280;64213;46.452;16.994;2023-11-21T02:00:23;99332.34;;;5.97;100.00
75629;BME280;64213;46.452;16.994;2023-11-21T02:03:26;99331.25;;;6.01;100.00
75629;BME280;64213;46.452;16.994;2023-11-21T02:06:28;99324.03;;;6.04;100.00
75629;BME280;64213;46.452;16.994;2023-11-21T02:09:33;99329.94;;;6.08;100.00
75629;BME280;64213;46.452;16.994;2023-11-21T02:12:36;99334.34;;;5.92;100.00
75629;BME280;64213;46.452;16.994;2023-11-21T02:15:41;99340.53;;;5.59;100.00
75629;BME280;64213;46.452;16.994;2023-11-21T02:18:43;99343.06;;;5.45;100.00
75629;BME280;64213;46.452;16.994;2023-11-21T02:21:46;99343.50;;;5.37;100.00
75629;BME280;64213;46.452;16.994;2023-11-21T02:24:50;99345.50;;;5.32;100.00
75629;BME280;64213;46.452;16.994;2023-11-21T02:27:54;99341.78;;;5.20;100.00
75629;BME280;64213;46.452;16.994;2023-11-21T02:30:57;99329.00;;;5.14;100.00
75629;BME280;64213;46.452;16.994;2023-11-21T02:34:01;99338.44;;;5.17;100.00
75629;BME280;64213;46.452;16.994;2023-11-21T02:37:05;99340.06;;;5.19;100.00
75629;BME280;64213;46.452;16.994;2023-11-21T02:40:09;99344.31;;;5.22;100.00
75629;BME280;64213;46.452;16.994;2023-11-21T02:43:12;99350.22;;;5.25;100.00
75629;BME280;64213;46.452;16.994;2023-11-21T02:46:14;99350.84;;;5.30;100.00
75629;BME280;64213;46.452;16.994;2023-11-21T02:49:17;99360.22;;;5.34;100.00
75629;BME280;64213;46.452;16.994;2023-11-21T02:52:19;99365.47;;;5.34;100.00
75629;BME280;64213;46.452;16.994;2023-11-21T02:55:22;99376.91;;;5.33;100.00
75629;BME280;64213;46.452;16.994;2023-11-21T02:58:27;99372.56;;;5.32;100.00
75629;BME280;64213;46.452;16.994;2023-11-21T03:01:29;99389.16;;;5.33;100.00
75629;BME280;64213;46.452;16.994;2023-11-21T03:04:32;99391.69;;;5.34;100.00
75629;BME280;64213;46.452;16.994;2023-11-21T03:07:37;99385.50;;;5.35;100.00
75629;BME280;64213;46.452;16.994;2023-11-21T03:10:39;99379.53;;;5.33;100.00
75629;BME280;64213;46.452;16.994;2023-11-21T03:13:42;99375.97;;;5.34;100.00
75629;BME280;64213;46.452;16.994;2023-11-21T03:16:44;99382.72;;;5.39;100.00
75629;BME280;64213;46.452;16.994;2023-11-21T03:19:47;99380.78;;;5.42;100.00
75629;BME280;64213;46.452;16.994;2023-11-21T03:22:50;99382.41;;;5.45;100.00
75629;BME280;64213;46.452;16.994;2023-11-21T03:25:53;99384.13;;;5.46;100.00
75629;BME280;64213;46.452;16.994;2023-11-21T03:28:55;99393.50;;;5.50;100.00
75629;BME280;64213;46.452;16.994;2023-11-21T03:31:58;99404.69;;;5.53;100.00
75629;BME280;64213;46.452;16.994;2023-11-21T03:35:00;99414.22;;;5.54;100.00
75629;BME280;64213;46.452;16.994;2023-11-21T03:38:04;99433.12;;;5.61;100.00
75629;BME280;64213;46.452;16.994;2023-11-21T03:41:07;99452.34;;;5.62;100.00
75629;BME280;64213;46.452;16.994;2023-11-21T03:44:13;99471.31;;;5.67;100.00
75629;BME280;64213;46.452;16.994;2023-11-21T03:47:15;99488.03;;;5.64;100.00
75629;BME280;64213;46.452;16.994;2023-11-21T03:50:18;99493.56;;;5.42;100.00
75629;BME280;64213;46.452;16.994;2023-11-21T03:53:20;99488.31;;;5.42;100.00
75629;BME280;64213;46.452;16.994;2023-11-21T03:56:23;99482.16;;;5.43;100.00
75629;BME280;64213;46.452;16.994;2023-11-21T03:59:25;99469.91;;;5.44;100.00
75629;BME280;64213;46.452;16.994;2023-11-21T04:02:28;99474.03;;;5.48;100.00
75629;BME280;64213;46.452;16.994;2023-11-21T04:05:32;99465.84;;;5.54;100.00
75629;BME280;64213;46.452;16.994;2023-11-21T04:08:34;99458.75;;;5.56;100.00
75629;BME280;64213;46.452;16.994;2023-11-21T04:11:37;99458.59;;;5.59;100.00
75629;BME280;64213;46.452;16.994;2023-11-21T04:14:39;99461.22;;;5.59;100.00
75629;BME280;64213;46.452;16.994;2023-11-21T04:17:42;99448.78;;;5.63;100.00
75629;BME280;64213;46.452;16.994;2023-11-21T04:20:44;99447.00;;;5.63;100.00
75629;BME280;64213;46.452;16.994;2023-11-21T04:23:47;99452.09;;;5.66;100.00
75629;BME280;64213;46.452;16.994;2023-11-21T04:26:49;99458.13;;;5.68;100.00
75629;BME280;64213;46.452;16.994;2023-11-21T04:29:51;99458.78;;;5.72;100.00
75629;BME280;64213;46.452;16.994;2023-11-21T04:32:54;99462.31;;;5.71;100.00
75629;BME280;64213;46.452;16.994;2023-11-21T04:35:56;99466.41;;;5.76;100.00
75629;BME280;64213;46.452;16.994;2023-11-21T04:38:59;99467.09;;;5.80;100.00
75629;BME280;64213;46.452;16.994;2023-11-21T04:42:01;99461.59;;;5.85;100.00
75629;BME280;64213;46.452;16.994;2023-11-21T04:45:05;99461.88;;;5.96;100.00
75629;BME280;64213;46.452;16.994;2023-11-21T04:48:11;99448.94;;;6.09;100.00
75629;BME280;64213;46.452;16.994;2023-11-21T04:51:14;99448.03;;;6.25;100.00
75629;BME280;64213;46.452;16.994;2023-11-21T04:54:17;99441.16;;;6.39;100.00
75629;BME280;64213;46.452;16.994;2023-11-21T04:57:20;99437.84;;;6.51;100.00
75629;BME280;64213;46.452;16.994;2023-11-21T05:00:23;99432.03;;;6.60;100.00
75629;BME280;64213;46.452;16.994;2023-11-21T05:03:26;99435.25;;;6.65;100.00
75629;BME280;64213;46.452;16.994;2023-11-21T05:06:28;99442.66;;;6.73;100.00
75629;BME280;64213;46.452;16.994;2023-11-21T05:09:31;99451.44;;;6.73;100.00
75629;BME280;64213;46.452;16.994;2023-11-21T05:12:34;99452.84;;;6.79;100.00
75629;BME280;64213;46.452;16.994;2023-11-21T05:15:39;99460.47;;;6.84;100.00
75629;BME280;64213;46.452;16.994;2023-11-21T05:18:43;99466.47;;;6.86;100.00
75629;BME280;64213;46.452;16.994;2023-11-21T05:21:45;99469.09;;;6.86;100.00
75629;BME280;64213;46.452;16.994;2023-11-21T05:24:48;99470.16;;;6.83;100.00
75629;BME280;64213;46.452;16.994;2023-11-21T05:27:50;99469.28;;;6.83;100.00
75629;BME280;64213;46.452;16.994;2023-11-21T05:30:52;99462.31;;;6.82;100.00
75629;BME280;64213;46.452;16.994;2023-11-21T05:34:15;99464.97;;;6.82;100.00
75629;BME280;64213;46.452;16.994;2023-11-21T05:37:20;99463.84;;;6.86;100.00
75629;BME280;64213;46.452;16.994;2023-11-21T05:40:22;99465.63;;;6.85;100.00
75629;BME280;64213;46.452;16.994;2023-11-21T05:43:25;99459.28;;;6.89;100.00
75629;BME280;64213;46.452;16.994;2023-11-21T05:46:27;99466.87;;;6.94;100.00
75629;BME280;64213;46.452;16.994;2023-11-21T05:49:30;99462.38;;;6.96;100.00
75629;BME280;64213;46.452;16.994;2023-11-21T05:52:32;99467.53;;;6.97;100.00
75629;BME280;64213;46.452;16.994;2023-11-21T05:55:35;99475.19;;;7.02;100.00
75629;BME280;64213;46.452;16.994;2023-11-21T05:58:38;99468.88;;;7.05;100.00
75629;BME280;64213;46.452;16.994;2023-11-21T06:01:40;99475.91;;;7.04;100.00
75629;BME280;64213;46.452;16.994;2023-11-21T06:04:43;99471.78;;;7.00;100.00
75629;BME280;64213;46.452;16.994;2023-11-21T06:07:46;99475.00;;;7.05;100.00
75629;BME280;64213;46.452;16.994;2023-11-21T06:10:48;99469.75;;;7.05;100.00
75629;BME280;64213;46.452;16.994;2023-11-21T06:13:51;99471.50;;;7.05;100.00
75629;BME280;64213;46.452;16.994;2023-11-21T06:16:55;99477.88;;;7.01;100.00
75629;BME280;64213;46.452;16.994;2023-11-21T06:19:58;99481.53;;;6.98;100.00
75629;BME280;64213;46.452;16.994;2023-11-21T06:23:01;99474.47;;;6.98;100.00
75629;BME280;64213;46.452;16.994;2023-11-21T06:26:06;99479.75;;;6.98;100.00
75629;BME280;64213;46.452;16.994;2023-11-21T06:29:08;99491.22;;;6.97;100.00
75629;BME280;64213;46.452;16.994;2023-11-21T06:32:10;99495.63;;;6.97;100.00
75629;BME280;64213;46.452;16.994;2023-11-21T06:35:14;99489.59;;;6.95;100.00
75629;BME280;64213;46.452;16.994;2023-11-21T06:38:19;99491.88;;;7.01;100.00
75629;BME280;64213;46.452;16.994;2023-11-21T06:41:24;99494.50;;;7.01;100.00
75629;BME280;64213;46.452;16.994;2023-11-21T06:44:27;99501.47;;;7.02;100.00
75629;BME280;64213;46.452;16.994;2023-11-21T06:47:30;99502.22;;;7.04;100.00
75629;BME280;64213;46.452;16.994;2023-11-21T06:50:33;99508.41;;;7.03;100.00
75629;BME280;64213;46.452;16.994;2023-11-21T06:53:37;99509.19;;;7.05;100.00
75629;BME280;64213;46.452;16.994;2023-11-21T06:56:40;99508.41;;;7.03;100.00
75629;BME280;64213;46.452;16.994;2023-11-21T06:59:44;99492.50;;;6.90;100.00
75629;BME280;64213;46.452;16.994;2023-11-21T07:02:47;99520.78;;;7.01;100.00
75629;BME280;64213;46.452;16.994;2023-11-21T07:05:50;99531.31;;;7.01;100.00
75629;BME280;64213;46.452;16.994;2023-11-21T07:08:52;99532.25;;;7.00;100.00
75629;BME280;64213;46.452;16.994;2023-11-21T07:11:55;99531.41;;;6.99;100.00
75629;BME280;64213;46.452;16.994;2023-11-21T07:14:58;99517.50;;;6.97;100.00
75629;BME280;64213;46.452;16.994;2023-11-21T07:18:01;99536.69;;;6.99;100.00
75629;BME280;64213;46.452;16.994;2023-11-21T07:21:03;99532.09;;;7.03;100.00
75629;BME280;64213;46.452;16.994;2023-11-21T07:24:07;99520.72;;;7.03;100.00
75629;BME280;64213;46.452;16.994;2023-11-21T07:27:10;99533.03;;;7.02;100.00
75629;BME280;64213;46.452;16.994;2023-11-21T07:30:13;99523.34;;;7.03;100.00
75629;BME280;64213;46.452;16.994;2023-11-21T07:33:15;99514.53;;;7.04;100.00
75629;BME280;64213;46.452;16.994;2023-11-21T07:36:19;99519.88;;;7.02;100.00
75629;BME280;64213;46.452;16.994;2023-11-21T07:39:22;99518.94;;;7.03;100.00
75629;BME280;64213;46.452;16.994;2023-11-21T07:42:25;99523.19;;;7.06;100.00
75629;BME280;64213;46.452;16.994;2023-11-21T07:45:28;99532.66;;;7.08;100.00
75629;BME280;64213;46.452;16.994;2023-11-21T07:48:31;99518.59;;;7.09;100.00
75629;BME280;64213;46.452;16.994;2023-11-21T07:51:33;99520.44;;;7.07;100.00
75629;BME280;64213;46.452;16.994;2023-11-21T07:54:36;99516.88;;;7.08;100.00
75629;BME280;64213;46.452;16.994;2023-11-21T07:57:38;99513.41;;;7.08;100.00
75629;BME280;64213;46.452;16.994;2023-11-21T08:00:40;99518.47;;;7.11;100.00
75629;BME280;64213;46.452;16.994;2023-11-21T08:03:43;99518.41;;;7.12;100.00
75629;BME280;64213;46.452;16.994;2023-11-21T08:06:46;99522.66;;;7.15;100.00
75629;BME280;64213;46.452;16.994;2023-11-21T08:09:48;99514.56;;;7.18;100.00
75629;BME280;64213;46.452;16.994;2023-11-21T08:12:52;99499.53;;;7.20;100.00
75629;BME280;64213;46.452;16.994;2023-11-21T08:15:56;99489.78;;;7.22;100.00
75629;BME280;64213;46.452;16.994;2023-11-21T08:19:03;99486.12;;;7.25;100.00
75629;BME280;64213;46.452;16.994;2023-11-21T08:22:05;99482.63;;;7.24;100.00
75629;BME280;64213;46.452;16.994;2023-11-21T08:25:10;99475.59;;;7.25;100.00
75629;BME280;64213;46.452;16.994;2023-11-21T08:28:13;99466.75;;;7.26;100.00
75629;BME280;64213;46.452;16.994;2023-11-21T08:31:24;99466.66;;;7.27;100.00
75629;BME280;64213;46.452;16.994;2023-11-21T08:34:27;99464.03;;;7.27;100.00
75629;BME280;64213;46.452;16.994;2023-11-21T08:37:30;99462.16;;;7.29;100.00
75629;BME280;64213;46.452;16.994;2023-11-21T08:40:35;99460.37;;;7.30;100.00
75629;BME280;64213;46.452;16.994;2023-11-21T08:43:37;99466.59;;;7.29;100.00
75629;BME280;64213;46.452;16.994;2023-11-21T08:46:43;99468.25;;;7.30;100.00
75629;BME280;64213;46.452;16.994;2023-11-21T08:49:47;99463.00;;;7.30;100.00
75629;BME280;64213;46.452;16.994;2023-11-21T08:52:50;99470.16;;;7.28;100.00
75629;BME280;64213;46.452;16.994;2023-11-21T08:55:53;99463.94;;;7.29;100.00
75629;BME280;64213;46.452;16.994;2023-11-21T08:58:56;99466.59;;;7.29;100.00
75629;BME280;64213;46.452;16.994;2023-11-21T09:01:59;99469.22;;;7.29;100.00
75629;BME280;64213;46.452;16.994;2023-11-21T09:05:02;99470.91;;;7.30;100.00
75629;BME280;64213;46.452;16.994;2023-11-21T09:08:05;99470.06;;;7.29;100.00
75629;BME280;64213;46.452;16.994;2023-11-21T09:11:09;99481.41;;;7.30;100.00
75629;BME280;64213;46.452;16.994;2023-11-21T09:14:12;99484.06;;;7.30;100.00
75629;BME280;64213;46.452;16.994;2023-11-21T09:17:17;99492.72;;;7.32;100.00
75629;BME280;64213;46.452;16.994;2023-11-21T09:20:20;99493.56;;;7.32;100.00
75629;BME280;64213;46.452;16.994;2023-11-21T09:23:24;99489.91;;;7.35;100.00
75629;BME280;64213;46.452;16.994;2023-11-21T09:26:27;99487.09;;;7.38;100.00
75629;BME280;64213;46.452;16.994;2023-11-21T09:29:30;99479.09;;;7.39;100.00
75629;BME280;64213;46.452;16.994;2023-11-21T09:32:32;99477.09;;;7.43;100.00
75629;BME280;64213;46.452;16.994;2023-11-21T09:35:35;99470.62;;;7.49;100.00
75629;BME280;64213;46.452;16.994;2023-11-21T09:38:37;99466.87;;;7.53;100.00
75629;BME280;64213;46.452;16.994;2023-11-21T09:41:49;99459.44;;;7.59;100.00
75629;BME280;64213;46.452;16.994;2023-11-21T09:48:10;99462.28;;;7.71;100.00
75629;BME280;64213;46.452;16.994;2023-11-21T09:51:14;99454.09;;;7.75;100.00
75629;BME280;64213;46.452;16.994;2023-11-21T09:54:18;99441.50;;;7.80;100.00
75629;BME280;64213;46.452;16.994;2023-11-21T09:57:23;99443.75;;;7.86;100.00
75629;BME280;64213;46.452;16.994;2023-11-21T10:00:25;99447.69;;;7.93;100.00
75629;BME280;64213;46.452;16.994;2023-11-21T10:03:29;99443.06;;;7.97;100.00
75629;BME280;64213;46.452;16.994;2023-11-21T10:06:32;99437.41;;;8.03;100.00
75629;BME280;64213;46.452;16.994;2023-11-21T10:09:36;99433.66;;;8.07;100.00
75629;BME280;64213;46.452;16.994;2023-11-21T10:12:41;99438.50;;;8.13;100.00
75629;BME280;64213;46.452;16.994;2023-11-21T10:15:51;99447.19;;;8.15;100.00
75629;BME280;64213;46.452;16.994;2023-11-21T10:18:56;99438.31;;;8.16;100.00
75629;BME280;64213;46.452;16.994;2023-11-21T10:22:12;99439.91;;;8.19;100.00
75629;BME280;64213;46.452;16.994;2023-11-21T10:25:17;99437.22;;;8.21;100.00
75629;BME280;64213;46.452;16.994;2023-11-21T10:28:22;99428.34;;;8.22;100.00
75629;BME280;64213;46.452;16.994;2023-11-21T10:31:28;99427.75;;;8.31;100.00
75629;BME280;64213;46.452;16.994;2023-11-21T10:34:33;99431.03;;;8.34;100.00
75629;BME280;64213;46.452;16.994;2023-11-21T10:37:37;99431.72;;;8.38;100.00
75629;BME280;64213;46.452;16.994;2023-11-21T10:40:44;99426.03;;;8.44;100.00
75629;BME280;64213;46.452;16.994;2023-11-21T10:43:47;99415.31;;;8.47;100.00
75629;BME280;64213;46.452;16.994;2023-11-21T10:46:51;99419.88;;;8.58;100.00
75629;BME280;64213;46.452;16.994;2023-11-21T10:49:54;99420.28;;;8.65;100.00
75629;BME280;64213;46.452;16.994;2023-11-21T10:52:57;99418.34;;;8.68;100.00
75629;BME280;64213;46.452;16.994;2023-11-21T10:56:02;99415.91;;;8.65;100.00
75629;BME280;64213;46.452;16.994;2023-11-21T10:59:09;99419.38;;;8.66;100.00
75629;BME280;64213;46.452;16.994;2023-11-21T11:02:24;99423.28;;;8.73;100.00
75629;BME280;64213;46.452;16.994;2023-11-21T11:05:30;99426.16;;;8.82;100.00
75629;BME280;64213;46.452;16.994;2023-11-21T11:08:39;99424.47;;;8.81;100.00
75629;BME280;64213;46.452;16.994;2023-11-21T11:11:41;99430.28;;;8.87;100.00
75629;BME280;64213;46.452;16.994;2023-11-21T11:14:46;99428.94;;;8.94;100.00
75629;BME280;64213;46.452;16.994;2023-11-21T11:17:50;99415.41;;;8.98;100.00
75629;BME280;64213;46.452;16.994;2023-11-21T11:20:53;99421.03;;;9.06;100.00
75629;BME280;64213;46.452;16.994;2023-11-21T11:27:34;99418.28;;;9.08;100.00
75629;BME280;64213;46.452;16.994;2023-11-21T11:33:50;99415.03;;;9.17;100.00
75629;BME280;64213;46.452;16.994;2023-11-21T11:40:06;99411.63;;;9.28;100.00
75629;BME280;64213;46.452;16.994;2023-11-21T11:43:09;99413.84;;;9.34;100.00
75629;BME280;64213;46.452;16.994;2023-11-21T11:46:12;99409.94;;;9.40;100.00
75629;BME280;64213;46.452;16.994;2023-11-21T11:49:24;99414.06;;;9.44;100.00
75629;BME280;64213;46.452;16.994;2023-11-21T11:52:38;99400.03;;;9.43;100.00
75629;BME280;64213;46.452;16.994;2023-11-21T11:55:43;99393.56;;;9.47;100.00
75629;BME280;64213;46.452;16.994;2023-11-21T11:58:47;99396.41;;;9.44;100.00
75629;BME280;64213;46.452;16.994;2023-11-21T12:01:50;99403.41;;;9.45;100.00
75629;BME280;64213;46.452;16.994;2023-11-21T12:04:55;99400.13;;;9.54;100.00
75629;BME280;64213;46.452;16.994;2023-11-21T12:08:01;99399.50;;;9.51;100.00
75629;BME280;64213;46.452;16.994;2023-11-21T12:11:05;99409.72;;;9.55;100.00
75629;BME280;64213;46.452;16.994;2023-11-21T12:14:09;99416.19;;;9.51;100.00
75629;BME280;64213;46.452;16.994;2023-11-21T12:17:12;99411.84;;;9.50;100.00
75629;BME280;64213;46.452;16.994;2023-11-21T12:20:18;99402.78;;;9.42;100.00
75629;BME280;64213;46.452;16.994;2023-11-21T12:23:20;99408.91;;;9.42;100.00
75629;BME280;64213;46.452;16.994;2023-11-21T12:26:24;99403.22;;;9.36;100.00
75629;BME280;64213;46.452;16.994;2023-11-21T12:29:26;99397.09;;;9.35;100.00
75629;BME280;64213;46.452;16.994;2023-11-21T12:32:31;99395.38;;;9.34;100.00
75629;BME280;64213;46.452;16.994;2023-11-21T12:35:35;99399.72;;;9.35;100.00
75629;BME280;64213;46.452;16.994;2023-11-21T12:38:37;99403.09;;;9.37;100.00
75629;BME280;64213;46.452;16.994;2023-11-21T12:41:40;99408.28;;;9.39;100.00
75629;BME280;64213;46.452;16.994;2023-11-21T12:44:46;99416.81;;;9.29;100.00
75629;BME280;64213;46.452;16.994;2023-11-21T12:47:50;99420.84;;;9.22;100.00
75629;BME280;64213;46.452;16.994;2023-11-21T12:50:54;99422.59;;;9.22;100.00
75629;BME280;64213;46.452;16.994;2023-11-21T12:53:57;99421.78;;;9.21;100.00
75629;BME280;64213;46.452;16.994;2023-11-21T12:57:01;99424.72;;;9.17;100.00
75629;BME280;64213;46.452;16.994;2023-11-21T13:00:05;99424.81;;;9.15;100.00
75629;BME280;64213;46.452;16.994;2023-11-21T13:03:16;99425.69;;;9.16;100.00
75629;BME280;64213;46.452;16.994;2023-11-21T13:06:22;99431.81;;;9.16;100.00
75629;BME280;64213;46.452;16.994;2023-11-21T13:09:27;99420.84;;;9.10;100.00
75629;BME280;64213;46.452;16.994;2023-11-21T13:12:30;99417.44;;;9.07;100.00
75629;BME280;64213;46.452;16.994;2023-11-21T13:15:39;99415.75;;;9.06;100.00
75629;BME280;64213;46.452;16.994;2023-11-21T13:18:43;99421.44;;;9.00;100.00
75629;BME280;64213;46.452;16.994;2023-11-21T13:21:46;99420.28;;;8.92;100.00
75629;BME280;64213;46.452;16.994;2023-11-21T13:24:48;99425.88;;;8.87;100.00
75629;BME280;64213;46.452;16.994;2023-11-21T13:27:51;99425.88;;;8.87;100.00
75629;BME280;64213;46.452;16.994;2023-11-21T13:30:53;99430.19;;;8.88;100.00
75629;BME280;64213;46.452;16.994;2023-11-21T13:33:56;99430.81;;;8.92;100.00
75629;BME280;64213;46.452;16.994;2023-11-21T13:37:01;99427.44;;;8.90;100.00
75629;BME280;64213;46.452;16.994;2023-11-21T13:40:06;99421.31;;;8.89;100.00
75629;BME280;64213;46.452;16.994;2023-11-21T13:43:17;99421.22;;;8.91;100.00
75629;BME280;64213;46.452;16.994;2023-11-21T13:46:20;99418.59;;;8.91;100.00
75629;BME280;64213;46.452;16.994;2023-11-21T13:49:24;99416.25;;;8.86;100.00
75629;BME280;64213;46.452;16.994;2023-11-21T13:52:28;99418.25;;;8.82;100.00
75629;BME280;64213;46.452;16.994;2023-11-21T13:55:35;99413.28;;;8.78;100.00
75629;BME280;64213;46.452;16.994;2023-11-21T13:58:38;99417.81;;;8.76;100.00
75629;BME280;64213;46.452;16.994;2023-11-21T14:01:58;99420.56;;;8.74;100.00
75629;BME280;64213;46.452;16.994;2023-11-21T14:05:19;99414.09;;;8.66;100.00
75629;BME280;64213;46.452;16.994;2023-11-21T14:08:31;99412.50;;;8.63;100.00
75629;BME280;64213;46.452;16.994;2023-11-21T14:11:34;99411.88;;;8.59;100.00
75629;BME280;64213;46.452;16.994;2023-11-21T14:14:49;99419.22;;;8.54;100.00
75629;BME280;64213;46.452;16.994;2023-11-21T14:17:52;99415.94;;;8.51;100.00
75629;BME280;64213;46.452;16.994;2023-11-21T14:20:54;99420.50;;;8.49;100.00
75629;BME280;64213;46.452;16.994;2023-11-21T14:23:56;99419.09;;;8.43;100.00
75629;BME280;64213;46.452;16.994;2023-11-21T14:26:59;99414.03;;;8.40;100.00
75629;BME280;64213;46.452;16.994;2023-11-21T14:30:02;99424.72;;;8.37;100.00
75629;BME280;64213;46.452;16.994;2023-11-21T14:33:04;99430.19;;;8.34;100.00
75629;BME280;64213;46.452;16.994;2023-11-21T14:36:07;99425.12;;;8.31;100.00
75629;BME280;64213;46.452;16.994;2023-11-21T14:39:12;99434.19;;;8.27;100.00
75629;BME280;64213;46.452;16.994;2023-11-21T14:42:26;99429.19;;;8.22;100.00
75629;BME280;64213;46.452;16.994;2023-11-21T14:45:32;99429.31;;;8.21;100.00
75629;BME280;64213;46.452;16.994;2023-11-21T14:48:36;99424.22;;;8.18;100.00
75629;BME280;64213;46.452;16.994;2023-11-21T14:51:49;99423.59;;;8.14;100.00
75629;BME280;64213;46.452;16.994;2023-11-21T14:55:10;99423.03;;;8.09;100.00
75629;BME280;64213;46.452;16.994;2023-11-21T14:58:27;99428.78;;;8.01;100.00
75629;BME280;64213;46.452;16.994;2023-11-21T15:01:31;99433.41;;;7.98;100.00
75629;BME280;64213;46.452;16.994;2023-11-21T15:04:47;99430.84;;;7.96;100.00
75629;BME280;64213;46.452;16.994;2023-11-21T15:07:50;99432.91;;;7.91;100.00
75629;BME280;64213;46.452;16.994;2023-11-21T15:10:58;99441.56;;;7.93;100.00
75629;BME280;64213;46.452;16.994;2023-11-21T15:14:00;99445.16;;;7.92;100.00
75629;BME280;64213;46.452;16.994;2023-11-21T15:17:09;99438.19;;;7.91;100.00
75629;BME280;64213;46.452;16.994;2023-11-21T15:20:12;99439.13;;;7.90;100.00
75629;BME280;64213;46.452;16.994;2023-11-21T15:23:21;99438.47;;;7.86;100.00
75629;BME280;64213;46.452;16.994;2023-11-21T15:26:23;99443.88;;;7.85;100.00
75629;BME280;64213;46.452;16.994;2023-11-21T15:29:29;99449.31;;;7.82;100.00
75629;BME280;64213;46.452;16.994;2023-11-21T15:32:31;99454.78;;;7.79;100.00
75629;BME280;64213;46.452;16.994;2023-11-21T15:35:33;99451.38;;;7.77;100.00
75629;BME280;64213;46.452;16.994;2023-11-21T15:38:39;99445.66;;;7.70;100.00
75629;BME280;64213;46.452;16.994;2023-11-21T15:41:42;99449.22;;;7.69;100.00
75629;BME280;64213;46.452;16.994;2023-11-21T15:44:44;99448.47;;;7.67;100.00
75629;BME280;64213;46.452;16.994;2023-11-21T15:47:47;99447.72;;;7.65;100.00
75629;BME280;64213;46.452;16.994;2023-11-21T15:50:49;99452.31;;;7.61;100.00
75629;BME280;64213;46.452;16.994;2023-11-21T15:53:54;99456.09;;;7.57;100.00
75629;BME280;64213;46.452;16.994;2023-11-21T15:56:56;99450.06;;;7.55;100.00
75629;BME280;64213;46.452;16.994;2023-11-21T16:00:01;99450.25;;;7.52;100.00
75629;BME280;64213;46.452;16.994;2023-11-21T16:03:10;99458.31;;;7.49;100.00
75629;BME280;64213;46.452;16.994;2023-11-21T16:06:14;99456.62;;;7.48;100.00
75629;BME280;64213;46.452;16.994;2023-11-21T16:09:18;99456.94;;;7.43;100.00
75629;BME280;64213;46.452;16.994;2023-11-21T16:12:33;99460.59;;;7.41;100.00
75629;BME280;64213;46.452;16.994;2023-11-21T16:15:36;99441.59;;;7.36;100.00
75629;BME280;64213;46.452;16.994;2023-11-21T16:18:38;99450.63;;;7.32;100.00
75629;BME280;64213;46.452;16.994;2023-11-21T16:21:41;99452.47;;;7.30;100.00